createdAt,value
2023-03-23T15:59:27.309Z,98014.53
2023-03-23T16:01:54.231Z,98014.03
2023-03-23T16:04:21.409Z,98009.88
2023-03-23T16:06:48.955Z,98008.34
2023-03-23T16:09:19.447Z,98009.03
2023-03-23T16:11:46.559Z,98004.72
2023-03-23T16:14:13.236Z,98006.09
2023-03-23T16:16:39.961Z,98017.09
2023-03-23T16:19:07.247Z,98016.22
2023-03-23T16:21:34.144Z,98024.44
2023-03-23T16:24:01.450Z,98018.63
2023-03-23T16:26:28.276Z,98017.13
2023-03-23T16:29:02.749Z,98019.75
2023-03-23T16:31:36.843Z,98015.91
2023-03-23T16:34:03.497Z,98016.06
2023-03-23T16:36:30.096Z,98007.44
2023-03-23T16:38:56.690Z,98001.31
2023-03-23T16:41:23.388Z,98010.47
2023-03-23T16:43:50.109Z,98002.50
2023-03-23T16:46:16.759Z,98008.66
2023-03-23T16:48:43.728Z,98000.16
2023-03-23T16:51:10.477Z,98005.50
2023-03-23T16:53:37.738Z,98002.47
2023-03-23T16:56:05.195Z,98010.47
2023-03-23T16:58:31.969Z,98009.66
2023-03-23T17:00:58.663Z,98010.31
2023-03-23T17:03:25.652Z,98000.34
2023-03-23T17:05:53.059Z,98008.16
2023-03-23T17:08:20.989Z,98008.16
2023-03-23T17:10:48.259Z,98013.13
2023-03-23T17:13:14.930Z,98004.66
2023-03-23T17:15:45.290Z,98011.19
2023-03-23T17:18:14.232Z,98019.81
2023-03-23T17:20:42.707Z,98008.50
2023-03-23T17:23:09.611Z,98015.16
2023-03-23T17:25:36.192Z,98020.31
2023-03-23T17:28:05.687Z,98022.81
2023-03-23T17:30:33.159Z,98003.84
2023-03-23T17:33:00.151Z,98000.53
2023-03-23T17:35:26.922Z,98011.34
2023-03-23T17:37:53.699Z,98019.16
2023-03-23T17:40:20.531Z,98019.00
2023-03-23T17:42:47.186Z,98024.31
2023-03-23T17:45:13.864Z,98022.81
2023-03-23T17:47:40.526Z,98021.47
2023-03-23T17:50:11.673Z,98027.13
2023-03-23T17:52:40.523Z,98016.97
2023-03-23T17:55:08.147Z,98020.13
2023-03-23T17:57:35.413Z,98022.81
2023-03-23T18:00:03.546Z,98034.78
2023-03-23T18:02:30.450Z,98037.25
2023-03-23T18:04:59.711Z,98039.53
2023-03-23T18:07:26.424Z,98048.34
2023-03-23T18:09:53.130Z,98050.69
2023-03-23T18:12:19.811Z,98047.34
2023-03-23T18:14:46.497Z,98053.00
2023-03-23T18:17:13.071Z,98049.00
2023-03-23T18:19:39.830Z,98047.16
2023-03-23T18:22:06.533Z,98043.69
2023-03-23T18:24:33.208Z,98043.03
2023-03-23T18:27:00.266Z,98043.34
2023-03-23T18:29:27.069Z,98041.03
2023-03-23T18:31:53.878Z,98038.66
2023-03-23T18:34:20.725Z,98044.13
2023-03-23T18:36:47.348Z,98054.13
2023-03-23T18:39:14.172Z,98055.59
2023-03-23T18:41:40.957Z,98059.25
2023-03-23T18:44:07.602Z,98061.56
2023-03-23T18:46:34.300Z,98067.84
2023-03-23T18:49:00.969Z,98075.50
2023-03-23T18:51:27.684Z,98070.19
2023-03-23T18:53:54.533Z,98081.59
2023-03-23T18:56:21.159Z,98089.03
2023-03-23T18:58:47.803Z,98088.19
2023-03-23T19:01:17.056Z,98084.72
2023-03-23T19:03:46.045Z,98080.72
2023-03-23T19:06:19.410Z,98086.19
2023-03-23T19:08:47.835Z,98081.84
2023-03-23T19:11:14.989Z,98089.97
2023-03-23T19:13:53.933Z,98093.44
2023-03-23T19:16:28.247Z,98086.66
2023-03-23T19:18:54.938Z,98098.91
2023-03-23T19:21:25.483Z,98090.94
2023-03-23T19:23:56.127Z,98085.56
2023-03-23T19:26:29.234Z,98084.94
2023-03-23T19:31:26.053Z,98088.75
2023-03-23T19:33:53.312Z,98081.25
2023-03-23T19:36:21.366Z,98074.50
2023-03-23T19:38:48.442Z,98076.63
2023-03-23T19:41:18.300Z,98074.28
2023-03-23T19:43:46.053Z,98065.00
2023-03-23T19:46:14.074Z,98065.16
2023-03-23T19:48:41.013Z,98062.22
2023-03-23T19:51:09.272Z,98065.31
2023-03-23T19:53:36.323Z,98058.38
2023-03-23T19:56:04.852Z,98068.44
2023-03-23T19:58:32.508Z,98066.78
2023-03-23T20:01:01.065Z,98056.16
2023-03-23T20:03:28.453Z,98051.84
2023-03-23T20:06:02.939Z,98057.78
2023-03-23T20:08:31.326Z,98055.94
2023-03-23T20:11:06.588Z,98045.66
2023-03-23T20:13:33.259Z,98053.63
2023-03-23T20:16:00.885Z,98045.66
2023-03-23T20:18:29.789Z,98045.50
2023-03-23T20:21:10.148Z,98044.97
2023-03-23T20:23:38.460Z,98040.03
2023-03-23T20:26:11.750Z,98044.97
2023-03-23T20:28:39.151Z,98049.44
2023-03-23T20:31:19.222Z,98045.97
2023-03-23T20:34:00.885Z,98037.84
2023-03-23T20:36:40.552Z,98040.84
2023-03-23T20:39:10.857Z,98035.09
2023-03-23T20:41:38.924Z,98031.91
2023-03-23T20:44:07.586Z,98026.09
2023-03-23T20:46:35.345Z,98026.94
2023-03-23T20:49:02.764Z,98021.41
2023-03-23T20:51:29.725Z,98020.03
2023-03-23T20:53:56.315Z,98027.72
2023-03-23T20:56:24.479Z,98024.53
2023-03-23T20:58:51.943Z,98026.00
2023-03-23T21:01:18.661Z,98021.38
2023-03-23T21:03:45.593Z,98015.72
2023-03-23T21:06:12.258Z,98018.38
2023-03-23T21:08:40.795Z,98028.28
2023-03-23T21:11:09.924Z,98024.44
2023-03-23T21:13:36.965Z,98014.75
2023-03-23T21:16:05.196Z,98014.25
2023-03-23T21:18:32.283Z,98010.91
2023-03-23T21:21:00.395Z,98000.44
2023-03-23T21:23:30.755Z,97992.16
2023-03-23T21:26:02.512Z,98001.59
2023-03-23T21:28:29.809Z,98002.78
2023-03-23T21:31:01.030Z,97984.06
2023-03-23T21:33:28.323Z,97983.84
2023-03-23T21:35:55.104Z,97975.22
2023-03-23T21:38:26.358Z,97980.84
2023-03-23T21:40:54.472Z,97975.91
2023-03-23T21:43:27.720Z,97969.81
2023-03-23T21:46:02.930Z,97971.56
2023-03-23T21:48:30.191Z,97967.59
2023-03-23T21:50:57.002Z,97970.44
2023-03-23T21:53:25.500Z,97962.63
2023-03-23T21:55:52.744Z,97965.16
2023-03-23T21:58:21.763Z,97957.66
2023-03-23T22:00:50.312Z,97960.47
2023-03-23T22:03:19.229Z,97956.69
2023-03-23T22:05:46.584Z,97951.38
2023-03-23T22:08:13.873Z,97957.50
2023-03-23T22:11:01.248Z,97954.22
2023-03-23T22:13:33.430Z,97949.75
2023-03-23T22:16:21.488Z,97943.63
2023-03-23T22:18:49.314Z,97940.81
2023-03-23T22:21:17.098Z,97937.66
2023-03-23T22:23:45.554Z,97937.38
2023-03-23T22:26:12.745Z,97944.34
2023-03-23T22:28:39.878Z,97939.03
2023-03-23T22:31:12.002Z,97932.88
2023-03-23T22:33:39.177Z,97939.53
2023-03-23T22:36:07.193Z,97933.91
2023-03-23T22:38:35.747Z,97930.25
2023-03-23T22:41:07.000Z,97921.66
2023-03-23T22:43:35.461Z,97922.63
2023-03-23T22:46:02.942Z,97911.03
2023-03-23T22:48:30.123Z,97905.34
2023-03-23T22:50:58.513Z,97903.38
2023-03-23T22:53:25.602Z,97897.75
2023-03-23T22:55:55.021Z,97896.41
2023-03-23T22:58:21.605Z,97894.41
2023-03-23T23:00:50.378Z,97898.72
2023-03-23T23:03:18.109Z,97889.25
2023-03-23T23:05:48.587Z,97883.31
2023-03-23T23:08:17.889Z,97882.78
2023-03-23T23:10:48.061Z,97884.28
2023-03-23T23:13:15.304Z,97861.22
2023-03-23T23:15:47.166Z,97866.53
2023-03-23T23:18:14.586Z,97863.88
2023-03-23T23:20:42.230Z,97860.69
2023-03-23T23:23:09.270Z,97864.69
2023-03-23T23:25:36.592Z,97857.88
2023-03-23T23:28:04.930Z,97856.03
2023-03-23T23:30:32.170Z,97862.53
2023-03-23T23:32:59.026Z,97863.66
2023-03-23T23:35:26.216Z,97855.72
2023-03-23T23:37:53.500Z,97844.59
2023-03-23T23:40:20.467Z,97849.56
2023-03-23T23:42:50.168Z,97835.97
2023-03-23T23:45:18.211Z,97843.63
2023-03-23T23:47:45.828Z,97842.13
2023-03-23T23:50:13.928Z,97841.78
2023-03-23T23:52:42.639Z,97856.09
2023-03-23T23:55:10.470Z,97849.44
2023-03-23T23:57:37.646Z,97846.28
